Decoded Metar for PFYU (FORT YUKON in AK, USA) (IATA:FYU) | Meteo·Mobile Aviation Weather
aviador You're here:

PFYU Decoded Metar

FORT YUKON in AK, USA
Report Time2019-03-23 16:56:00
UTC Time2019-03-23 17:11:48
Flight Rules vfr VFR
Wind040° at 06 kt
W.Decomp.*RWY 04: 5.4 kt HW 2.5 kt LCW
W.Rank040° ranks 2
Current wind is below 040° avg. (6.7)
Visibility9999 m
Phenomena:N/A
Clouds:N/A
Expected CloudBase > 1,200 ft AGL from Temp-Dew spread
CeilingNone
Temp-10°C (ISA -22)
Dew Point-13°C (79% RH)
AAT-15.4°C
QNH1013 hPa
Density Alt-1,312 ft
Elevation1,414 ft
Report Wrong Elevation
Raw Report
PFYU 231656Z 04006KT 10SM CLR M10/M13 A2990 RMK AO2 SLP149
T11001128=

Extra information for PFYU:More info

Metar Taf Metar & Taf Last 4 Metars F.Rules Stats Wind Profile Meteogram Temp Stats Airport Information Weather charts Add Link Nearby VenuesMetar ALERT Operation Metar Decoded Social comments

AIRNAV info for PFYU